This is the latest recevied weather packets stored in our database for station/object KG2V. If no packets are shown the sender has not sent any weather packets the latest 1 day(s).
| Time | Temp. | Humidity | Pressure | Rain* | Wind** | Luminosity | Snow |
|---|---|---|---|---|---|---|---|
| 1836274772 | 8.33° C | 94% | 1019 hPa | 0 mm | 0 m/s | 0 W/m² | - |
| 1836274470 | 8.33° C | 94% | 1018.8 hPa | 0 mm | 0 m/s | 0 W/m² | - |
| 1836274324 | 8.33° C | 94% | 1019 hPa | 0 mm | 0 m/s | 0 W/m² | - |
| 1836274168 | 8.89° C | 93% | 1019.1 hPa | 0 mm | 0 m/s | 0 W/m² | - |
| 1836273863 | 8.89° C | 93% | 1018.8 hPa | 0 mm | 0 m/s | 0 W/m² | - |
| 1778047671 | 8.33° C | 99% | 1005.1 hPa | 7.87 mm | 1.34 m/s, 35° | 0 W/m² | - |
| 1778047368 | 8.33° C | 99% | 1005.1 hPa | 6.1 mm | 0 m/s | 0 W/m² | - |
| 1778047065 | 8.33° C | 99% | 1005.1 hPa | 6.1 mm | 0 m/s | 0 W/m² | - |
| 1778046761 | 8.33° C | 99% | 1005.4 hPa | 4.83 mm | 0 m/s | 0 W/m² | - |
| 1778046459 | 8.33° C | 99% | 1005.1 hPa | 3.56 mm | 0 m/s | 0 W/m² | - |
| 1778046155 | 8.33° C | 99% | 1004.9 hPa | 3.05 mm | 0 m/s | 0 W/m² | - |
| 1778045852 | 8.33° C | 99% | 1004.8 hPa | 3.05 mm | 0 m/s | 0 W/m² | - |
| 1778045551 | 8.33° C | 99% | 1005.1 hPa | 4.83 mm | 0 m/s | 0 W/m² | - |
| 1778045248 | 8.33° C | 99% | 1004.9 hPa | 4.32 mm | 0 m/s | 0 W/m² | - |
| 1778044947 | 8.33° C | 99% | 1005.1 hPa | 4.83 mm | 0 m/s | 0 W/m² | - |
| 1778044644 | 8.89° C | 99% | 1005.1 hPa | 4.83 mm | 0 m/s | 0 W/m² | - |
| 1778044340 | 8.89° C | 99% | 1005.3 hPa | 4.32 mm | 0 m/s | 0 W/m² | - |
| 1778044038 | 8.89° C | 99% | 1005.6 hPa | 3.05 mm | 0 m/s | 0 W/m² | - |
| 1778043735 | 8.89° C | 99% | 1005.4 hPa | 3.05 mm | 0 m/s | 0 W/m² | - |
| 1778043432 | 8.89° C | 99% | 1005.3 hPa | 4.83 mm | 0 m/s | 0 W/m² | - |
| 1778043128 | 8.89° C | 99% | 1005.1 hPa | 4.83 mm | 0 m/s | 0 W/m² | - |
| 1778042826 | 8.89° C | 99% | 1005.5 hPa | 3.05 mm | 0 m/s | 0 W/m² | - |
| 1778042523 | 8.89° C | 99% | 1005.3 hPa | 3.05 mm | 0 m/s | 0 W/m² | - |
| 1778042220 | 8.89° C | 99% | 1005.2 hPa | 3.05 mm | 0 m/s | 0 W/m² | - |
| 1778041918 | 8.89° C | 99% | 1005 hPa | 3.05 mm | 0 m/s | 0 W/m² | - |
* Rain latest hour (hover to see other rain measurements)
** Current wind speed in m/s (hover to see current wind gust speed)